createdAt,value
2018-02-27T05:00:41.773Z,1018.19
2018-02-27T05:01:07.229Z,1018.19
2018-02-27T05:01:32.736Z,1018.22
2018-02-27T05:01:58.234Z,1018.22
2018-02-27T05:02:23.696Z,1018.21
2018-02-27T05:02:49.204Z,1018.17
2018-02-27T05:03:14.693Z,1018.2
2018-02-27T05:03:40.205Z,1018.19
2018-02-27T05:04:05.710Z,1018.2
2018-02-27T05:04:31.190Z,1018.16
2018-02-27T05:04:56.911Z,1018.17
2018-02-27T05:05:22.164Z,1018.16
2018-02-27T05:05:47.655Z,1018.17
2018-02-27T05:06:13.100Z,1018.24
2018-02-27T05:06:38.602Z,1018.17
2018-02-27T05:07:04.063Z,1018.22
2018-02-27T05:07:29.573Z,1018.21
2018-02-27T05:07:55.079Z,1018.22
2018-02-27T05:08:20.545Z,1018.18
2018-02-27T05:08:46.023Z,1018.19
2018-02-27T05:09:11.579Z,1018.19
2018-02-27T05:09:37.086Z,1018.21
2018-02-27T05:10:02.534Z,1018.18
2018-02-27T05:10:28.090Z,1018.16
2018-02-27T05:10:53.514Z,1018.2
2018-02-27T05:11:19.027Z,1018.21
2018-02-27T05:11:44.453Z,1018.19
2018-02-27T05:12:10.228Z,1018.2
2018-02-27T05:12:35.718Z,1018.16
2018-02-27T05:13:01.176Z,1018.19
2018-02-27T05:13:26.694Z,1018.18
2018-02-27T05:13:52.415Z,1018.18
2018-02-27T05:14:17.845Z,1018.18
2018-02-27T05:14:43.306Z,1018.22
2018-02-27T05:15:08.816Z,1018.2
2018-02-27T05:15:34.383Z,1018.2
2018-02-27T05:15:59.908Z,1018.19
2018-02-27T05:16:25.354Z,1018.22
2018-02-27T05:16:50.839Z,1018.2
2018-02-27T05:17:16.353Z,1018.14
2018-02-27T05:17:41.879Z,1018.21
2018-02-27T05:18:07.346Z,1018.21
2018-02-27T05:18:32.786Z,1018.23
2018-02-27T05:18:58.273Z,1018.19
2018-02-27T05:19:23.761Z,1018.22
2018-02-27T05:19:49.231Z,1018.23
2018-02-27T05:20:14.687Z,1018.23
2018-02-27T05:20:40.194Z,1018.19
2018-02-27T05:21:05.650Z,1018.17
2018-02-27T05:21:31.097Z,1018.2
2018-02-27T05:21:56.556Z,1018.2
2018-02-27T05:22:22.336Z,1018.24
2018-02-27T05:22:47.780Z,1018.21
2018-02-27T05:23:13.238Z,1018.18
2018-02-27T05:23:38.775Z,1018.18
2018-02-27T05:24:04.180Z,1018.2
2018-02-27T05:24:29.654Z,1018.18
2018-02-27T05:24:55.197Z,1018.19
2018-02-27T05:25:20.688Z,1018.17
2018-02-27T05:25:46.090Z,1018.16
2018-02-27T05:26:11.639Z,1018.16
2018-02-27T05:26:37.139Z,1018.16
2018-02-27T05:27:02.533Z,1018.16
2018-02-27T05:27:28.132Z,1018.15
2018-02-27T05:27:53.621Z,1018.16
2018-02-27T05:28:19.033Z,1018.14
2018-02-27T05:28:44.563Z,1018.18
2018-02-27T05:29:09.937Z,1018.14
2018-02-27T05:29:35.416Z,1018.15
2018-02-27T05:30:00.924Z,1018.11
2018-02-27T05:30:26.448Z,1018.13
2018-02-27T05:30:51.886Z,1018.13
2018-02-27T05:31:17.384Z,1018.14
2018-02-27T05:31:42.876Z,1018.12
2018-02-27T05:32:08.356Z,1018.17
2018-02-27T05:32:33.778Z,1018.12
2018-02-27T05:32:59.332Z,1018.15
2018-02-27T05:33:24.789Z,1018.16
2018-02-27T05:33:50.299Z,1018.1
2018-02-27T05:34:15.742Z,1018.09
2018-02-27T05:34:41.226Z,1018.14
2018-02-27T05:35:06.680Z,1018.07
2018-02-27T05:35:32.336Z,1018.1
2018-02-27T05:35:57.835Z,1018.15
2018-02-27T05:36:23.257Z,1018.11
2018-02-27T05:36:48.719Z,1018.13
2018-02-27T05:37:14.130Z,1018.13
2018-02-27T05:37:39.652Z,1018.1
2018-02-27T05:38:05.136Z,1018.09
2018-02-27T05:38:30.622Z,1018.09
2018-02-27T05:38:56.219Z,1018.12
2018-02-27T05:39:21.668Z,1018.08
2018-02-27T05:39:47.118Z,1018.11
2018-02-27T05:40:12.568Z,1018.12
2018-02-27T05:40:38.115Z,1018.08
2018-02-27T05:41:03.536Z,1018.1
2018-02-27T05:41:29.118Z,1018.14
2018-02-27T05:41:54.542Z,1018.07
2018-02-27T05:42:20.023Z,1018.08
2018-02-27T05:42:45.518Z,1018.06
2018-02-27T05:43:10.960Z,1018.05
2018-02-27T05:43:36.539Z,1018.07
2018-02-27T05:44:01.927Z,1018.08
2018-02-27T05:44:27.486Z,1018.08
2018-02-27T05:44:52.990Z,1018.13
2018-02-27T05:45:18.504Z,1018.08
2018-02-27T05:45:43.927Z,1018.05
2018-02-27T05:46:09.418Z,1018.04
2018-02-27T05:46:34.925Z,1018
2018-02-27T05:47:00.521Z,1017.98
2018-02-27T05:47:25.979Z,1017.97
2018-02-27T05:47:51.427Z,1017.97
2018-02-27T05:48:16.949Z,1018.02
2018-02-27T05:48:42.414Z,1018.03
2018-02-27T05:49:07.918Z,1017.99
2018-02-27T05:49:33.422Z,1018.03
2018-02-27T05:49:58.857Z,1018.01
2018-02-27T05:50:24.381Z,1018.05
2018-02-27T05:50:49.922Z,1018.08
2018-02-27T05:51:15.427Z,1018.07
2018-02-27T05:51:40.892Z,1018.08
2018-02-27T05:52:06.422Z,1018.07
2018-02-27T05:52:31.906Z,1018.07
2018-02-27T05:52:57.407Z,1018.1
2018-02-27T05:53:22.975Z,1018.1
2018-02-27T05:53:48.369Z,1018.13
2018-02-27T05:54:13.819Z,1018.1
2018-02-27T05:54:39.330Z,1018.11
2018-02-27T05:55:04.821Z,1018.1
2018-02-27T05:55:30.294Z,1018.11
2018-02-27T05:55:56.339Z,1018.11
2018-02-27T05:56:21.763Z,1018.09
2018-02-27T05:56:47.303Z,1018.08
2018-02-27T05:57:12.761Z,1018.09
2018-02-27T05:57:38.214Z,1018.11
2018-02-27T05:58:03.672Z,1018.09
2018-02-27T05:58:29.114Z,1018.05
2018-02-27T05:58:54.710Z,1018.1
2018-02-27T05:59:20.180Z,1018.06
2018-02-27T05:59:45.676Z,1018.06
2018-02-27T06:00:11.156Z,1018.07
2018-02-27T06:00:36.644Z,1018.03
2018-02-27T06:01:02.173Z,1018.05
2018-02-27T06:01:27.653Z,1018.08
2018-02-27T06:01:53.135Z,1018.07
2018-02-27T06:02:18.962Z,1018.08
2018-02-27T06:02:44.598Z,1018.07
2018-02-27T06:03:43.112Z,1018.11
2018-02-27T06:04:08.698Z,1018.15
2018-02-27T06:04:34.212Z,1018.15
2018-02-27T06:04:59.698Z,1018.13
2018-02-27T06:05:25.198Z,1018.18
2018-02-27T06:05:50.691Z,1018.19
2018-02-27T06:06:16.212Z,1018.22
2018-02-27T06:06:41.732Z,1018.2
2018-02-27T06:07:07.250Z,1018.16
2018-02-27T06:07:32.759Z,1018.22
2018-02-27T06:07:58.255Z,1018.23
2018-02-27T06:08:23.767Z,1018.25
2018-02-27T06:08:49.262Z,1018.29
2018-02-27T06:09:14.751Z,1018.27
2018-02-27T06:09:40.275Z,1018.29
2018-02-27T06:10:05.747Z,1018.29
2018-02-27T06:10:31.212Z,1018.28
2018-02-27T06:10:56.685Z,1018.26
2018-02-27T06:11:22.156Z,1018.28
2018-02-27T06:11:47.717Z,1018.29
2018-02-27T06:12:13.158Z,1018.26
2018-02-27T06:12:38.657Z,1018.29
2018-02-27T06:13:04.308Z,1018.29
2018-02-27T06:13:30.033Z,1018.27
2018-02-27T06:13:55.501Z,1018.29
2018-02-27T06:14:21.041Z,1018.27
2018-02-27T06:14:46.466Z,1018.24
2018-02-27T06:15:11.985Z,1018.27
2018-02-27T06:15:37.391Z,1018.3
2018-02-27T06:16:02.847Z,1018.27
2018-02-27T06:16:28.325Z,1018.28
2018-02-27T06:16:54.028Z,1018.29
2018-02-27T06:17:19.813Z,1018.28
2018-02-27T06:17:45.248Z,1018.3
2018-02-27T06:18:10.729Z,1018.29
2018-02-27T06:18:36.312Z,1018.32
2018-02-27T06:19:01.769Z,1018.27
2018-02-27T06:19:27.199Z,1018.27
2018-02-27T06:19:52.685Z,1018.3
2018-02-27T06:20:18.202Z,1018.29
2018-02-27T06:20:43.659Z,1018.28
2018-02-27T06:21:09.193Z,1018.25
2018-02-27T06:21:34.655Z,1018.26
2018-02-27T06:22:00.138Z,1018.3
2018-02-27T06:22:25.641Z,1018.28
2018-02-27T06:22:51.198Z,1018.28
2018-02-27T06:23:16.741Z,1018.29
2018-02-27T06:23:42.182Z,1018.32
2018-02-27T06:24:07.678Z,1018.3
2018-02-27T06:24:33.110Z,1018.3
2018-02-27T06:24:58.551Z,1018.29
2018-02-27T06:25:24.130Z,1018.31
2018-02-27T06:25:49.590Z,1018.28
2018-02-27T06:26:15.036Z,1018.31
2018-02-27T06:26:40.514Z,1018.27
2018-02-27T06:27:06.106Z,1018.27
2018-02-27T06:27:31.533Z,1018.34
2018-02-27T06:27:57.062Z,1018.28
2018-02-27T06:28:22.518Z,1018.29
2018-02-27T06:28:48.038Z,1018.26
2018-02-27T06:29:13.528Z,1018.31
2018-02-27T06:29:39.002Z,1018.31
2018-02-27T06:30:04.475Z,1018.29
2018-02-27T06:30:29.924Z,1018.29
2018-02-27T06:30:55.368Z,1018.34
2018-02-27T06:31:20.893Z,1018.3
2018-02-27T06:31:46.353Z,1018.31
2018-02-27T06:32:11.818Z,1018.3
2018-02-27T06:32:37.315Z,1018.26
2018-02-27T06:33:02.832Z,1018.26
2018-02-27T06:34:16.640Z,1018.31
2018-02-27T06:34:42.126Z,1018.28
2018-02-27T06:35:07.572Z,1018.28
2018-02-27T06:35:33.113Z,1018.28
2018-02-27T06:35:58.645Z,1018.31
2018-02-27T06:36:24.161Z,1018.3
2018-02-27T06:36:49.812Z,1018.3
2018-02-27T06:37:15.253Z,1018.3
2018-02-27T06:37:40.810Z,1018.29
2018-02-27T06:38:06.344Z,1018.27
2018-02-27T06:38:31.843Z,1018.3
2018-02-27T06:38:57.245Z,1018.3
2018-02-27T06:39:22.803Z,1018.25
2018-02-27T06:39:48.289Z,1018.28
2018-02-27T06:40:13.833Z,1018.29
2018-02-27T06:40:39.263Z,1018.29
2018-02-27T06:41:04.784Z,1018.32
2018-02-27T06:41:30.300Z,1018.25
2018-02-27T06:41:55.910Z,1018.23
2018-02-27T06:42:21.466Z,1018.25
2018-02-27T06:42:46.913Z,1018.22
2018-02-27T06:43:12.406Z,1018.22
2018-02-27T06:43:38.049Z,1018.28
2018-02-27T06:44:03.504Z,1018.23
2018-02-27T06:44:29.019Z,1018.27
2018-02-27T06:44:54.490Z,1018.37
2018-02-27T06:45:20.002Z,1018.31
2018-02-27T06:45:45.477Z,1018.31
2018-02-27T06:46:10.964Z,1018.3
2018-02-27T06:46:36.464Z,1018.31
2018-02-27T06:47:01.914Z,1018.31
2018-02-27T06:47:27.451Z,1018.31
2018-02-27T06:47:52.922Z,1018.33
2018-02-27T06:48:18.461Z,1018.37
2018-02-27T06:48:44.000Z,1018.34
2018-02-27T06:49:09.498Z,1018.32
2018-02-27T06:49:34.954Z,1018.34
2018-02-27T06:50:00.392Z,1018.34
2018-02-27T06:50:25.881Z,1018.34
2018-02-27T06:50:51.390Z,1018.29
2018-02-27T06:51:16.898Z,1018.32
2018-02-27T06:52:20.485Z,1018.32
2018-02-27T06:52:45.946Z,1018.33
2018-02-27T06:53:11.468Z,1018.29
2018-02-27T06:53:36.976Z,1018.28
2018-02-27T06:54:02.786Z,1018.28
2018-02-27T06:54:28.338Z,1018.27
2018-02-27T06:54:54.125Z,1018.35
2018-02-27T06:55:20.090Z,1018.25
2018-02-27T06:55:45.693Z,1018.26
2018-02-27T06:56:11.076Z,1018.24
2018-02-27T06:56:36.533Z,1018.28
2018-02-27T06:57:02.022Z,1018.25
2018-02-27T06:57:27.624Z,1018.29
2018-02-27T06:57:53.126Z,1018.27
2018-02-27T06:58:18.590Z,1018.3
2018-02-27T06:58:44.150Z,1018.28
2018-02-27T06:59:09.586Z,1018.3
2018-02-27T06:59:35.067Z,1018.3
2018-02-27T07:00:00.608Z,1018.33
2018-02-27T07:00:26.148Z,1018.26
2018-02-27T07:00:51.867Z,1018.31
2018-02-27T07:01:17.445Z,1018.28
2018-02-27T07:01:42.897Z,1018.3
2018-02-27T07:02:08.345Z,1018.28
2018-02-27T07:02:33.805Z,1018.28
2018-02-27T07:02:59.364Z,1018.28
2018-02-27T07:03:25.336Z,1018.31
2018-02-27T07:03:50.980Z,1018.27
2018-02-27T07:04:16.335Z,1018.3
2018-02-27T07:05:30.129Z,1018.26
2018-02-27T07:05:55.591Z,1018.28
2018-02-27T07:06:21.160Z,1018.29
2018-02-27T07:06:46.641Z,1018.29
2018-02-27T07:07:12.142Z,1018.29
2018-02-27T07:07:37.688Z,1018.29
2018-02-27T07:08:03.233Z,1018.24
2018-02-27T07:08:28.748Z,1018.26
2018-02-27T07:08:54.262Z,1018.27
2018-02-27T07:09:19.765Z,1018.28
2018-02-27T07:09:45.282Z,1018.26
2018-02-27T07:10:10.966Z,1018.31
2018-02-27T07:10:36.389Z,1018.27
2018-02-27T07:11:01.993Z,1018.26
2018-02-27T07:11:27.505Z,1018.25
2018-02-27T07:11:53.042Z,1018.26
2018-02-27T07:12:18.543Z,1018.25
2018-02-27T07:13:27.309Z,1018.19
2018-02-27T07:13:53.089Z,1018.25
2018-02-27T07:14:18.542Z,1018.22
2018-02-27T07:14:44.028Z,1018.25
2018-02-27T07:15:09.654Z,1018.24
2018-02-27T07:15:35.204Z,1018.2
2018-02-27T07:16:00.670Z,1018.23
2018-02-27T07:16:27.275Z,1018.23
2018-02-27T07:16:52.848Z,1018.22
2018-02-27T07:17:18.286Z,1018.22
2018-02-27T07:17:43.788Z,1018.22
2018-02-27T07:18:09.446Z,1018.24
2018-02-27T07:18:34.958Z,1018.24
2018-02-27T07:19:00.405Z,1018.23
2018-02-27T07:19:25.869Z,1018.27
2018-02-27T07:19:51.689Z,1018.23
2018-02-27T07:20:17.212Z,1018.24
2018-02-27T07:20:42.680Z,1018.24
2018-02-27T07:21:08.190Z,1018.26
2018-02-27T07:21:33.679Z,1018.25
2018-02-27T07:21:59.175Z,1018.3
2018-02-27T07:22:24.672Z,1018.28
2018-02-27T07:22:50.214Z,1018.29
2018-02-27T07:23:15.656Z,1018.29
2018-02-27T07:23:41.243Z,1018.32
2018-02-27T07:24:06.730Z,1018.32
2018-02-27T07:24:32.237Z,1018.34
2018-02-27T07:24:57.675Z,1018.34
2018-02-27T07:25:23.329Z,1018.37
2018-02-27T07:25:48.725Z,1018.31
2018-02-27T07:26:14.484Z,1018.36
2018-02-27T07:26:39.981Z,1018.33
2018-02-27T07:27:05.450Z,1018.32
2018-02-27T07:27:31.095Z,1018.33
2018-02-27T07:27:56.638Z,1018.33
2018-02-27T07:28:22.138Z,1018.36
2018-02-27T07:28:47.568Z,1018.31
2018-02-27T07:29:13.053Z,1018.26
2018-02-27T07:29:38.601Z,1018.25
2018-02-27T07:30:04.016Z,1018.31
2018-02-27T07:30:29.493Z,1018.27
2018-02-27T07:30:55.040Z,1018.29
2018-02-27T07:31:20.497Z,1018.26
2018-02-27T07:31:45.932Z,1018.25
2018-02-27T07:32:11.400Z,1018.23
2018-02-27T07:32:36.923Z,1018.22
2018-02-27T07:33:02.426Z,1018.29
2018-02-27T07:33:27.895Z,1018.27
2018-02-27T07:33:53.434Z,1018.26
2018-02-27T07:34:19.093Z,1018.23
2018-02-27T07:34:44.814Z,1018.25
2018-02-27T07:35:10.319Z,1018.3
2018-02-27T07:35:35.873Z,1018.26
2018-02-27T07:36:01.353Z,1018.27
2018-02-27T07:36:26.870Z,1018.29
2018-02-27T07:36:52.337Z,1018.33
2018-02-27T07:37:17.824Z,1018.32
2018-02-27T07:37:43.295Z,1018.28
2018-02-27T07:38:08.845Z,1018.28
2018-02-27T07:38:34.420Z,1018.25
2018-02-27T07:38:59.912Z,1018.25
2018-02-27T07:39:25.402Z,1018.26
2018-02-27T07:39:51.041Z,1018.26
2018-02-27T07:40:16.481Z,1018.26
2018-02-27T07:40:42.069Z,1018.28
2018-02-27T07:41:08.000Z,1018.26
2018-02-27T07:41:33.389Z,1018.25
2018-02-27T07:41:58.991Z,1018.3
2018-02-27T07:42:24.798Z,1018.25
2018-02-27T07:42:50.352Z,1018.28
2018-02-27T07:43:15.870Z,1018.25
2018-02-27T07:43:41.394Z,1018.28
2018-02-27T07:44:07.193Z,1018.29
2018-02-27T07:44:32.672Z,1018.33
2018-02-27T07:44:58.153Z,1018.28
2018-02-27T07:45:23.639Z,1018.29
2018-02-27T07:45:49.140Z,1018.32
2018-02-27T07:46:14.653Z,1018.33
2018-02-27T07:46:40.520Z,1018.33
2018-02-27T07:47:06.042Z,1018.34
2018-02-27T07:47:31.545Z,1018.34
2018-02-27T07:47:57.035Z,1018.32
2018-02-27T07:48:22.524Z,1018.31
2018-02-27T07:48:47.953Z,1018.35
2018-02-27T07:49:13.468Z,1018.29
2018-02-27T07:49:38.950Z,1018.34
2018-02-27T07:50:04.394Z,1018.34
2018-02-27T07:50:29.903Z,1018.33
2018-02-27T07:50:55.378Z,1018.38
2018-02-27T07:51:20.969Z,1018.27
2018-02-27T07:51:46.407Z,1018.37
2018-02-27T07:52:45.915Z,1018.33
2018-02-27T07:53:11.380Z,1018.32
2018-02-27T07:53:36.880Z,1018.31
2018-02-27T07:54:02.351Z,1018.29
2018-02-27T07:54:27.808Z,1018.32
2018-02-27T07:54:53.242Z,1018.29
2018-02-27T07:55:18.769Z,1018.3
2018-02-27T07:55:44.239Z,1018.31
2018-02-27T07:56:09.690Z,1018.32
2018-02-27T07:56:35.181Z,1018.31
2018-02-27T07:57:00.655Z,1018.29
2018-02-27T07:57:26.095Z,1018.31
2018-02-27T07:57:51.592Z,1018.29
2018-02-27T07:58:17.061Z,1018.35
2018-02-27T07:58:42.530Z,1018.31
2018-02-27T07:59:08.133Z,1018.3
2018-02-27T07:59:33.411Z,1018.35
2018-02-27T07:59:58.875Z,1018.35
2018-02-27T08:00:24.346Z,1018.26
2018-02-27T08:00:49.758Z,1018.26
2018-02-27T08:01:15.242Z,1018.25
2018-02-27T08:01:40.723Z,1018.21
2018-02-27T08:02:06.205Z,1018.28
2018-02-27T08:02:31.690Z,1018.28
2018-02-27T08:02:57.161Z,1018.31
2018-02-27T08:03:22.610Z,1018.24
2018-02-27T08:03:48.162Z,1018.26
2018-02-27T08:04:13.509Z,1018.31
2018-02-27T08:04:39.175Z,1018.32
2018-02-27T08:05:04.609Z,1018.3
2018-02-27T08:05:30.049Z,1018.31
2018-02-27T08:05:55.524Z,1018.22
2018-02-27T08:06:21.046Z,1018.23
2018-02-27T08:06:46.601Z,1018.27
2018-02-27T08:07:12.044Z,1018.27
2018-02-27T08:07:37.587Z,1018.24
2018-02-27T08:08:03.033Z,1018.3
2018-02-27T08:08:28.736Z,1018.29
2018-02-27T08:08:54.214Z,1018.25
2018-02-27T08:09:19.740Z,1018.29
2018-02-27T08:09:45.318Z,1018.23
2018-02-27T08:10:10.785Z,1018.25
2018-02-27T08:10:36.328Z,1018.21
2018-02-27T08:11:50.171Z,1018.22
2018-02-27T08:12:15.791Z,1018.19
2018-02-27T08:12:41.330Z,1018.23
2018-02-27T08:13:06.897Z,1018.19
2018-02-27T08:13:32.494Z,1018.21
2018-02-27T08:13:58.055Z,1018.18
2018-02-27T08:14:23.636Z,1018.15
2018-02-27T08:14:49.069Z,1018.16
2018-02-27T08:15:14.553Z,1018.18
2018-02-27T08:15:40.059Z,1018.15
2018-02-27T08:16:05.525Z,1018.19
2018-02-27T08:16:31.038Z,1018.15
2018-02-27T08:16:56.496Z,1018.18
2018-02-27T08:17:21.963Z,1018.16
2018-02-27T08:17:47.444Z,1018.18
2018-02-27T08:18:13.244Z,1018.16
2018-02-27T08:18:38.801Z,1018.19
2018-02-27T08:19:04.231Z,1018.18
2018-02-27T08:19:29.684Z,1018.17
2018-02-27T08:19:55.117Z,1018.17
2018-02-27T08:20:20.631Z,1018.13
2018-02-27T08:20:46.180Z,1018.22
2018-02-27T08:21:11.634Z,1018.19
2018-02-27T08:21:37.121Z,1018.17
2018-02-27T08:22:02.637Z,1018.16
2018-02-27T08:22:28.348Z,1018.12
2018-02-27T08:22:53.778Z,1018.16
2018-02-27T08:23:19.228Z,1018.12
2018-02-27T08:23:44.723Z,1018.14
2018-02-27T08:24:10.285Z,1018.13
2018-02-27T08:24:35.754Z,1018.15
2018-02-27T08:25:01.453Z,1018.07
2018-02-27T08:25:26.880Z,1018.13
2018-02-27T08:25:52.399Z,1018.14
2018-02-27T08:26:17.902Z,1018.12
2018-02-27T08:26:43.429Z,1018.12
2018-02-27T08:27:08.875Z,1018.13
2018-02-27T08:27:34.453Z,1018.08
2018-02-27T08:28:00.096Z,1018.13
2018-02-27T08:28:25.620Z,1018.1
2018-02-27T08:28:51.055Z,1018.12
2018-02-27T08:29:16.666Z,1018.15
2018-02-27T08:29:42.042Z,1018.14
2018-02-27T08:30:07.453Z,1018.13
2018-02-27T08:30:32.942Z,1018.13
2018-02-27T08:30:58.427Z,1018.13
2018-02-27T08:31:23.930Z,1018.13
2018-02-27T08:31:49.424Z,1018.11
2018-02-27T08:32:14.890Z,1018.11
2018-02-27T08:32:40.372Z,1018.15
2018-02-27T08:33:05.845Z,1018.08
2018-02-27T08:33:31.300Z,1018.13
2018-02-27T08:33:56.870Z,1018.12
2018-02-27T08:34:22.368Z,1018.13
2018-02-27T08:34:47.834Z,1018.15
2018-02-27T08:35:13.335Z,1018.15
2018-02-27T08:35:38.819Z,1018.18
2018-02-27T08:36:04.317Z,1018.1
2018-02-27T08:36:29.720Z,1018.14
2018-02-27T08:36:55.301Z,1018.17
2018-02-27T08:37:20.732Z,1018.1
2018-02-27T08:37:46.212Z,1018.15
2018-02-27T08:38:11.705Z,1018.08
2018-02-27T08:38:37.143Z,1018.11
2018-02-27T08:39:02.616Z,1018.1
2018-02-27T08:39:28.081Z,1018.05
2018-02-27T08:39:53.608Z,1018.06
2018-02-27T08:40:19.023Z,1018.04
2018-02-27T08:40:44.542Z,1018.07
2018-02-27T08:41:10.162Z,1018.03
2018-02-27T08:41:35.593Z,1018.04
2018-02-27T08:42:01.065Z,1018.04
2018-02-27T08:42:26.591Z,1018.03
2018-02-27T08:42:52.097Z,1018.04
2018-02-27T08:43:17.621Z,1018.06
2018-02-27T08:43:43.032Z,1018.03
2018-02-27T08:44:08.456Z,1018.07
2018-02-27T08:44:33.885Z,1018.06
2018-02-27T08:44:59.337Z,1018.04
2018-02-27T08:45:24.862Z,1018.09
2018-02-27T08:45:50.351Z,1018.02
2018-02-27T08:46:15.788Z,1018.05
2018-02-27T08:46:41.338Z,1018.04
2018-02-27T08:47:06.859Z,1018.07
2018-02-27T08:47:32.244Z,1018.08
2018-02-27T08:47:57.765Z,1018
2018-02-27T08:48:23.260Z,1017.98
2018-02-27T08:48:48.792Z,1017.97
2018-02-27T08:49:14.184Z,1018
2018-02-27T08:49:39.840Z,1018.04
2018-02-27T08:50:05.352Z,1017.98
2018-02-27T08:50:30.773Z,1017.99
2018-02-27T08:50:56.252Z,1018
2018-02-27T08:51:21.801Z,1017.98
2018-02-27T08:51:47.267Z,1017.94
2018-02-27T08:52:12.724Z,1018.09
2018-02-27T08:52:38.169Z,1017.95
2018-02-27T08:53:03.714Z,1017.96
2018-02-27T08:53:29.184Z,1017.94
2018-02-27T08:53:54.630Z,1017.96
2018-02-27T08:54:20.132Z,1017.94
2018-02-27T08:54:45.674Z,1017.98
2018-02-27T08:55:11.158Z,1017.92
2018-02-27T08:55:36.677Z,1017.93
2018-02-27T08:56:02.145Z,1017.91
2018-02-27T08:56:27.688Z,1017.87
2018-02-27T08:56:53.257Z,1017.92
2018-02-27T08:57:18.756Z,1017.89
2018-02-27T08:57:44.197Z,1017.89
2018-02-27T08:58:09.763Z,1017.89
2018-02-27T08:58:35.377Z,1017.83
2018-02-27T08:59:00.813Z,1017.86
2018-02-27T08:59:26.298Z,1017.86
2018-02-27T08:59:51.810Z,1017.86
2018-02-27T09:00:17.255Z,1017.9
2018-02-27T09:00:42.721Z,1017.91
2018-02-27T09:01:08.286Z,1017.88
2018-02-27T09:01:33.741Z,1017.94
2018-02-27T09:01:59.188Z,1017.94
2018-02-27T09:02:24.712Z,1017.94
2018-02-27T09:02:50.141Z,1017.97
2018-02-27T09:03:15.658Z,1017.89
2018-02-27T09:03:41.238Z,1017.87
2018-02-27T09:04:06.786Z,1017.88
2018-02-27T09:04:32.224Z,1017.91
2018-02-27T09:04:57.645Z,1017.89
2018-02-27T09:05:23.124Z,1017.87
2018-02-27T09:05:48.615Z,1017.83
2018-02-27T09:06:14.147Z,1017.83
2018-02-27T09:06:39.603Z,1017.78
2018-02-27T09:07:05.120Z,1017.8
2018-02-27T09:07:30.538Z,1017.78
2018-02-27T09:07:55.981Z,1017.83
2018-02-27T09:08:21.451Z,1017.82
2018-02-27T09:08:46.925Z,1017.82
2018-02-27T09:09:12.427Z,1017.84
2018-02-27T09:09:37.887Z,1017.81
2018-02-27T09:10:03.542Z,1017.79
2018-02-27T09:10:29.037Z,1017.79
2018-02-27T09:10:54.521Z,1017.87
2018-02-27T09:11:19.925Z,1017.78
2018-02-27T09:11:45.419Z,1017.77
2018-02-27T09:12:10.888Z,1017.81
2018-02-27T09:12:36.370Z,1017.76
2018-02-27T09:13:01.852Z,1017.76
2018-02-27T09:13:27.307Z,1017.79
2018-02-27T09:13:52.765Z,1017.77
2018-02-27T09:14:18.259Z,1017.75
2018-02-27T09:14:43.782Z,1017.71
2018-02-27T09:15:09.194Z,1017.67
2018-02-27T09:15:34.657Z,1017.68
2018-02-27T09:16:00.106Z,1017.73
2018-02-27T09:16:25.624Z,1017.71
2018-02-27T09:16:51.066Z,1017.72
2018-02-27T09:17:16.586Z,1017.72
2018-02-27T09:17:42.038Z,1017.7
2018-02-27T09:18:07.525Z,1017.67
2018-02-27T09:18:32.995Z,1017.66
2018-02-27T09:18:58.461Z,1017.68
2018-02-27T09:19:23.945Z,1017.65
2018-02-27T09:19:49.426Z,1017.71
2018-02-27T09:20:14.942Z,1017.72
2018-02-27T09:20:40.394Z,1017.71
2018-02-27T09:21:05.922Z,1017.66
2018-02-27T09:21:31.416Z,1017.72
2018-02-27T09:21:56.879Z,1017.64
2018-02-27T09:22:22.324Z,1017.67
2018-02-27T09:22:47.802Z,1017.71
2018-02-27T09:23:13.270Z,1017.67
2018-02-27T09:23:38.753Z,1017.69
2018-02-27T09:24:04.242Z,1017.69
2018-02-27T09:24:29.736Z,1017.64
2018-02-27T09:24:55.202Z,1017.63
2018-02-27T09:25:20.711Z,1017.63
2018-02-27T09:25:46.161Z,1017.62
2018-02-27T09:26:11.694Z,1017.69
2018-02-27T09:26:37.093Z,1017.63
2018-02-27T09:27:02.614Z,1017.65
2018-02-27T09:27:28.024Z,1017.59
2018-02-27T09:27:53.515Z,1017.6
2018-02-27T09:28:18.978Z,1017.61
2018-02-27T09:28:44.631Z,1017.57
2018-02-27T09:29:10.112Z,1017.62
2018-02-27T09:29:35.550Z,1017.66
2018-02-27T09:30:49.335Z,1017.62
2018-02-27T09:31:14.837Z,1017.59
2018-02-27T09:31:40.306Z,1017.62
2018-02-27T09:32:05.798Z,1017.64
2018-02-27T09:32:31.288Z,1017.64
2018-02-27T09:32:56.750Z,1017.63
2018-02-27T09:33:22.213Z,1017.65
2018-02-27T09:33:47.702Z,1017.6
2018-02-27T09:34:13.136Z,1017.57
2018-02-27T09:34:38.592Z,1017.57
2018-02-27T09:35:04.086Z,1017.57
2018-02-27T09:35:29.514Z,1017.6
2018-02-27T09:35:55.005Z,1017.58
2018-02-27T09:36:20.451Z,1017.54
2018-02-27T09:36:45.944Z,1017.57
2018-02-27T09:37:11.471Z,1017.57
2018-02-27T09:37:36.918Z,1017.51
2018-02-27T09:38:02.379Z,1017.56
2018-02-27T09:38:27.864Z,1017.55
2018-02-27T09:38:53.330Z,1017.54
2018-02-27T09:39:18.812Z,1017.54
2018-02-27T09:39:44.403Z,1017.53
2018-02-27T09:40:09.889Z,1017.49
2018-02-27T09:40:35.365Z,1017.51
2018-02-27T09:41:00.850Z,1017.49
2018-02-27T09:41:26.338Z,1017.49
2018-02-27T09:41:51.832Z,1017.53
2018-02-27T09:42:17.344Z,1017.49
2018-02-27T09:42:42.782Z,1017.47
2018-02-27T09:43:08.382Z,1017.46
2018-02-27T09:43:33.843Z,1017.48
2018-02-27T09:43:59.339Z,1017.48
2018-02-27T09:44:24.797Z,1017.48
2018-02-27T09:44:50.333Z,1017.47
2018-02-27T09:45:15.722Z,1017.55
2018-02-27T09:45:41.168Z,1017.52
2018-02-27T09:46:07.065Z,1017.44
2018-02-27T09:46:32.433Z,1017.45
2018-02-27T09:46:58.046Z,1017.47
2018-02-27T09:47:23.486Z,1017.49
2018-02-27T09:47:48.971Z,1017.48
2018-02-27T09:48:14.516Z,1017.47
2018-02-27T09:48:39.999Z,1017.49
2018-02-27T09:49:05.498Z,1017.45
2018-02-27T09:49:30.944Z,1017.49
2018-02-27T09:49:56.457Z,1017.54
2018-02-27T09:50:21.909Z,1017.47
2018-02-27T09:50:47.424Z,1017.5
2018-02-27T09:51:12.841Z,1017.51
2018-02-27T09:51:38.376Z,1017.5
2018-02-27T09:52:03.786Z,1017.49
2018-02-27T09:52:29.285Z,1017.48
2018-02-27T09:52:54.783Z,1017.53
2018-02-27T09:53:20.302Z,1017.49
2018-02-27T09:53:45.882Z,1017.52
2018-02-27T09:54:11.347Z,1017.46
2018-02-27T09:54:36.792Z,1017.46
2018-02-27T09:55:02.436Z,1017.5
2018-02-27T09:55:27.804Z,1017.49
2018-02-27T09:55:53.286Z,1017.47
2018-02-27T09:56:18.706Z,1017.45
2018-02-27T09:56:44.208Z,1017.46
2018-02-27T09:57:09.770Z,1017.52
2018-02-27T09:57:35.312Z,1017.46
2018-02-27T09:58:00.755Z,1017.49
2018-02-27T09:58:26.245Z,1017.46
2018-02-27T09:58:51.742Z,1017.48
2018-02-27T09:59:17.205Z,1017.4
2018-02-27T09:59:42.743Z,1017.41
2018-02-27T10:00:08.254Z,1017.43
2018-02-27T10:00:34.367Z,1017.44
2018-02-27T10:01:00.036Z,1017.43
2018-02-27T10:01:25.465Z,1017.43
2018-02-27T10:01:51.103Z,1017.45
2018-02-27T10:02:16.506Z,1017.4
2018-02-27T10:02:42.022Z,1017.44
2018-02-27T10:03:07.515Z,1017.44
2018-02-27T10:03:32.981Z,1017.39
2018-02-27T10:03:58.421Z,1017.46
2018-02-27T10:04:23.887Z,1017.41
2018-02-27T10:04:49.354Z,1017.38
2018-02-27T10:05:14.887Z,1017.45
2018-02-27T10:05:40.403Z,1017.39
2018-02-27T10:06:06.188Z,1017.4
2018-02-27T10:06:31.658Z,1017.38
2018-02-27T10:06:57.087Z,1017.43
2018-02-27T10:07:22.575Z,1017.44
2018-02-27T10:07:48.035Z,1017.41
2018-02-27T10:08:13.462Z,1017.4
2018-02-27T10:08:38.978Z,1017.39
2018-02-27T10:09:04.471Z,1017.42
2018-02-27T10:09:30.004Z,1017.4
2018-02-27T10:09:55.483Z,1017.46
2018-02-27T10:10:21.129Z,1017.4
2018-02-27T10:10:46.682Z,1017.35
2018-02-27T10:11:12.229Z,1017.44
2018-02-27T10:11:37.819Z,1017.36
2018-02-27T10:12:03.215Z,1017.4
2018-02-27T10:12:28.775Z,1017.37
2018-02-27T10:12:54.204Z,1017.38
2018-02-27T10:13:19.695Z,1017.4
2018-02-27T10:13:45.173Z,1017.43
2018-02-27T10:14:10.750Z,1017.39
2018-02-27T10:14:36.303Z,1017.39
2018-02-27T10:15:01.974Z,1017.36
2018-02-27T10:15:28.175Z,1017.34
2018-02-27T10:15:53.926Z,1017.35